sensor_id;sensor_type;location;lat;lon;timestamp;P1;durP1;ratioP1;P2;durP2;ratioP2
17965;SDS011;9108;53.204;10.424;2022-12-18T00:02:16;59.45;;;25.33;;
17965;SDS011;9108;53.204;10.424;2022-12-18T00:04:43;64.35;;;26.63;;
17965;SDS011;9108;53.204;10.424;2022-12-18T00:07:10;59.42;;;25.88;;
17965;SDS011;9108;53.204;10.424;2022-12-18T00:09:37;56.00;;;24.52;;
17965;SDS011;9108;53.204;10.424;2022-12-18T00:12:04;51.05;;;23.33;;
17965;SDS011;9108;53.204;10.424;2022-12-18T00:14:32;55.53;;;24.80;;
17965;SDS011;9108;53.204;10.424;2022-12-18T00:16:59;55.17;;;24.30;;
17965;SDS011;9108;53.204;10.424;2022-12-18T00:19:28;55.30;;;24.58;;
17965;SDS011;9108;53.204;10.424;2022-12-18T00:21:55;53.20;;;23.90;;
17965;SDS011;9108;53.204;10.424;2022-12-18T00:24:23;53.35;;;23.55;;
17965;SDS011;9108;53.204;10.424;2022-12-18T00:26:50;59.53;;;24.83;;
17965;SDS011;9108;53.204;10.424;2022-12-18T00:29:17;59.95;;;25.02;;
17965;SDS011;9108;53.204;10.424;2022-12-18T00:31:45;64.18;;;25.90;;
17965;SDS011;9108;53.204;10.424;2022-12-18T00:34:13;58.22;;;25.38;;
17965;SDS011;9108;53.204;10.424;2022-12-18T00:36:41;58.60;;;25.20;;
17965;SDS011;9108;53.204;10.424;2022-12-18T00:39:09;55.60;;;23.70;;
17965;SDS011;9108;53.204;10.424;2022-12-18T00:41:37;64.93;;;26.35;;
17965;SDS011;9108;53.204;10.424;2022-12-18T00:44:22;56.78;;;24.88;;
17965;SDS011;9108;53.204;10.424;2022-12-18T00:46:49;53.72;;;23.65;;
17965;SDS011;9108;53.204;10.424;2022-12-18T00:49:16;54.22;;;24.50;;
17965;SDS011;9108;53.204;10.424;2022-12-18T00:51:45;56.72;;;24.67;;
17965;SDS011;9108;53.204;10.424;2022-12-18T00:54:13;53.42;;;24.17;;
17965;SDS011;9108;53.204;10.424;2022-12-18T00:56:40;54.75;;;23.92;;
17965;SDS011;9108;53.204;10.424;2022-12-18T00:59:07;50.35;;;23.05;;
17965;SDS011;9108;53.204;10.424;2022-12-18T01:01:34;55.05;;;23.77;;
17965;SDS011;9108;53.204;10.424;2022-12-18T01:04:02;56.28;;;23.65;;
17965;SDS011;9108;53.204;10.424;2022-12-18T01:06:29;52.20;;;23.33;;
17965;SDS011;9108;53.204;10.424;2022-12-18T01:08:57;55.08;;;24.25;;
17965;SDS011;9108;53.204;10.424;2022-12-18T01:11:25;55.90;;;24.35;;
17965;SDS011;9108;53.204;10.424;2022-12-18T01:13:52;52.78;;;23.23;;
17965;SDS011;9108;53.204;10.424;2022-12-18T01:16:20;51.22;;;22.60;;
17965;SDS011;9108;53.204;10.424;2022-12-18T01:18:47;52.38;;;22.02;;
17965;SDS011;9108;53.204;10.424;2022-12-18T01:21:15;53.20;;;22.67;;
17965;SDS011;9108;53.204;10.424;2022-12-18T01:23:44;49.27;;;21.93;;
17965;SDS011;9108;53.204;10.424;2022-12-18T01:26:13;48.83;;;22.93;;
17965;SDS011;9108;53.204;10.424;2022-12-18T01:28:41;50.00;;;22.90;;
17965;SDS011;9108;53.204;10.424;2022-12-18T01:31:09;47.85;;;22.60;;
17965;SDS011;9108;53.204;10.424;2022-12-18T01:33:36;52.22;;;22.55;;
17965;SDS011;9108;53.204;10.424;2022-12-18T01:36:04;50.22;;;22.05;;
17965;SDS011;9108;53.204;10.424;2022-12-18T01:38:31;51.75;;;22.75;;
17965;SDS011;9108;53.204;10.424;2022-12-18T01:40:58;53.30;;;23.08;;
17965;SDS011;9108;53.204;10.424;2022-12-18T01:46:20;55.92;;;24.30;;
17965;SDS011;9108;53.204;10.424;2022-12-18T01:48:52;52.33;;;23.60;;
17965;SDS011;9108;53.204;10.424;2022-12-18T01:51:20;53.22;;;23.60;;
17965;SDS011;9108;53.204;10.424;2022-12-18T01:53:47;57.83;;;24.60;;
17965;SDS011;9108;53.204;10.424;2022-12-18T01:56:16;54.10;;;23.85;;
17965;SDS011;9108;53.204;10.424;2022-12-18T01:58:46;57.80;;;24.50;;
17965;SDS011;9108;53.204;10.424;2022-12-18T02:01:16;60.20;;;24.88;;
17965;SDS011;9108;53.204;10.424;2022-12-18T02:03:44;57.78;;;24.52;;
17965;SDS011;9108;53.204;10.424;2022-12-18T02:06:13;60.30;;;26.10;;
17965;SDS011;9108;53.204;10.424;2022-12-18T02:08:41;59.20;;;26.03;;
17965;SDS011;9108;53.204;10.424;2022-12-18T02:11:13;62.97;;;26.88;;
17965;SDS011;9108;53.204;10.424;2022-12-18T02:13:46;65.45;;;27.52;;
17965;SDS011;9108;53.204;10.424;2022-12-18T02:16:19;63.47;;;27.43;;
17965;SDS011;9108;53.204;10.424;2022-12-18T02:18:50;62.72;;;27.58;;
17965;SDS011;9108;53.204;10.424;2022-12-18T02:21:20;66.40;;;27.40;;
17965;SDS011;9108;53.204;10.424;2022-12-18T02:23:53;58.28;;;26.85;;
17965;SDS011;9108;53.204;10.424;2022-12-18T02:26:26;63.75;;;26.65;;
17965;SDS011;9108;53.204;10.424;2022-12-18T02:28:55;70.85;;;27.42;;
17965;SDS011;9108;53.204;10.424;2022-12-18T02:31:23;63.65;;;27.17;;
17965;SDS011;9108;53.204;10.424;2022-12-18T02:33:52;59.97;;;26.83;;
17965;SDS011;9108;53.204;10.424;2022-12-18T02:36:20;66.88;;;28.20;;
17965;SDS011;9108;53.204;10.424;2022-12-18T02:38:48;66.20;;;28.08;;
17965;SDS011;9108;53.204;10.424;2022-12-18T02:41:16;70.27;;;28.47;;
17965;SDS011;9108;53.204;10.424;2022-12-18T02:43:52;73.57;;;29.25;;
17965;SDS011;9108;53.204;10.424;2022-12-18T02:46:23;72.38;;;29.25;;
17965;SDS011;9108;53.204;10.424;2022-12-18T02:48:52;68.85;;;28.83;;
17965;SDS011;9108;53.204;10.424;2022-12-18T02:51:23;64.80;;;28.48;;
17965;SDS011;9108;53.204;10.424;2022-12-18T02:53:53;71.45;;;28.75;;
17965;SDS011;9108;53.204;10.424;2022-12-18T02:56:23;66.25;;;28.65;;
17965;SDS011;9108;53.204;10.424;2022-12-18T02:58:56;72.97;;;28.95;;
17965;SDS011;9108;53.204;10.424;2022-12-18T03:01:26;73.45;;;29.50;;
17965;SDS011;9108;53.204;10.424;2022-12-18T03:03:55;63.20;;;27.90;;
17965;SDS011;9108;53.204;10.424;2022-12-18T03:06:25;66.05;;;27.75;;
17965;SDS011;9108;53.204;10.424;2022-12-18T03:08:54;65.25;;;27.67;;
17965;SDS011;9108;53.204;10.424;2022-12-18T03:11:23;67.50;;;28.42;;
17965;SDS011;9108;53.204;10.424;2022-12-18T03:14:07;66.55;;;27.85;;
17965;SDS011;9108;53.204;10.424;2022-12-18T03:16:34;70.82;;;27.25;;
17965;SDS011;9108;53.204;10.424;2022-12-18T03:19:03;65.68;;;28.42;;
17965;SDS011;9108;53.204;10.424;2022-12-18T03:21:32;67.43;;;27.52;;
17965;SDS011;9108;53.204;10.424;2022-12-18T03:24:00;63.83;;;26.98;;
17965;SDS011;9108;53.204;10.424;2022-12-18T03:26:28;67.20;;;27.63;;
17965;SDS011;9108;53.204;10.424;2022-12-18T03:28:57;71.37;;;28.73;;
17965;SDS011;9108;53.204;10.424;2022-12-18T03:31:27;71.30;;;28.45;;
17965;SDS011;9108;53.204;10.424;2022-12-18T03:33:57;67.32;;;28.73;;
17965;SDS011;9108;53.204;10.424;2022-12-18T03:36:25;74.95;;;27.92;;
17965;SDS011;9108;53.204;10.424;2022-12-18T03:38:53;66.67;;;28.63;;
17965;SDS011;9108;53.204;10.424;2022-12-18T03:41:22;65.68;;;27.85;;
17965;SDS011;9108;53.204;10.424;2022-12-18T03:43:52;66.95;;;28.05;;
17965;SDS011;9108;53.204;10.424;2022-12-18T03:46:24;67.68;;;28.27;;
17965;SDS011;9108;53.204;10.424;2022-12-18T03:48:55;70.38;;;28.77;;
17965;SDS011;9108;53.204;10.424;2022-12-18T03:51:24;71.50;;;28.90;;
17965;SDS011;9108;53.204;10.424;2022-12-18T03:53:54;69.63;;;28.20;;
17965;SDS011;9108;53.204;10.424;2022-12-18T03:56:23;73.43;;;28.95;;
17965;SDS011;9108;53.204;10.424;2022-12-18T03:58:50;71.30;;;29.23;;
17965;SDS011;9108;53.204;10.424;2022-12-18T04:01:19;74.53;;;29.63;;
17965;SDS011;9108;53.204;10.424;2022-12-18T04:03:47;72.20;;;29.43;;
17965;SDS011;9108;53.204;10.424;2022-12-18T04:06:17;69.90;;;28.83;;
17965;SDS011;9108;53.204;10.424;2022-12-18T04:08:44;73.20;;;29.20;;
17965;SDS011;9108;53.204;10.424;2022-12-18T04:11:12;71.27;;;29.17;;
17965;SDS011;9108;53.204;10.424;2022-12-18T04:13:39;71.10;;;29.20;;
17965;SDS011;9108;53.204;10.424;2022-12-18T04:16:08;71.63;;;29.30;;
17965;SDS011;9108;53.204;10.424;2022-12-18T04:18:36;68.78;;;28.70;;
17965;SDS011;9108;53.204;10.424;2022-12-18T04:21:04;68.00;;;28.50;;
17965;SDS011;9108;53.204;10.424;2022-12-18T04:23:32;69.97;;;29.02;;
17965;SDS011;9108;53.204;10.424;2022-12-18T04:26:00;72.38;;;29.25;;
17965;SDS011;9108;53.204;10.424;2022-12-18T04:28:27;71.18;;;28.88;;
17965;SDS011;9108;53.204;10.424;2022-12-18T04:30:54;72.07;;;29.15;;
17965;SDS011;9108;53.204;10.424;2022-12-18T04:33:21;72.05;;;28.50;;
17965;SDS011;9108;53.204;10.424;2022-12-18T04:35:48;68.82;;;28.63;;
17965;SDS011;9108;53.204;10.424;2022-12-18T04:38:16;65.88;;;27.15;;
17965;SDS011;9108;53.204;10.424;2022-12-18T04:40:44;67.30;;;27.70;;
17965;SDS011;9108;53.204;10.424;2022-12-18T04:43:11;63.47;;;27.13;;
17965;SDS011;9108;53.204;10.424;2022-12-18T04:45:38;67.53;;;27.38;;
17965;SDS011;9108;53.204;10.424;2022-12-18T04:48:06;68.72;;;27.65;;
17965;SDS011;9108;53.204;10.424;2022-12-18T04:50:33;67.45;;;28.30;;
17965;SDS011;9108;53.204;10.424;2022-12-18T04:53:00;70.50;;;28.42;;
17965;SDS011;9108;53.204;10.424;2022-12-18T04:55:27;66.18;;;27.55;;
17965;SDS011;9108;53.204;10.424;2022-12-18T04:57:56;67.60;;;27.67;;
17965;SDS011;9108;53.204;10.424;2022-12-18T05:00:23;67.70;;;28.00;;
17965;SDS011;9108;53.204;10.424;2022-12-18T05:02:50;66.88;;;27.30;;
17965;SDS011;9108;53.204;10.424;2022-12-18T05:05:27;67.63;;;27.38;;
17965;SDS011;9108;53.204;10.424;2022-12-18T05:08:03;69.43;;;27.38;;
17965;SDS011;9108;53.204;10.424;2022-12-18T05:10:30;67.32;;;27.15;;
17965;SDS011;9108;53.204;10.424;2022-12-18T05:12:59;71.07;;;27.83;;
17965;SDS011;9108;53.204;10.424;2022-12-18T05:15:27;69.75;;;28.13;;
17965;SDS011;9108;53.204;10.424;2022-12-18T05:17:56;68.30;;;27.30;;
17965;SDS011;9108;53.204;10.424;2022-12-18T05:20:23;67.25;;;26.50;;
17965;SDS011;9108;53.204;10.424;2022-12-18T05:22:53;67.13;;;27.38;;
17965;SDS011;9108;53.204;10.424;2022-12-18T05:25:21;64.95;;;26.58;;
17965;SDS011;9108;53.204;10.424;2022-12-18T05:27:48;67.90;;;26.77;;
17965;SDS011;9108;53.204;10.424;2022-12-18T05:30:17;64.65;;;26.63;;
17965;SDS011;9108;53.204;10.424;2022-12-18T05:32:44;65.07;;;26.15;;
17965;SDS011;9108;53.204;10.424;2022-12-18T05:35:11;63.13;;;26.40;;
17965;SDS011;9108;53.204;10.424;2022-12-18T05:37:38;66.10;;;27.35;;
17965;SDS011;9108;53.204;10.424;2022-12-18T05:40:06;68.53;;;27.63;;
17965;SDS011;9108;53.204;10.424;2022-12-18T05:42:33;64.75;;;26.83;;
17965;SDS011;9108;53.204;10.424;2022-12-18T05:45:00;65.72;;;26.55;;
17965;SDS011;9108;53.204;10.424;2022-12-18T05:47:29;64.93;;;26.95;;
17965;SDS011;9108;53.204;10.424;2022-12-18T05:49:59;69.32;;;27.63;;
17965;SDS011;9108;53.204;10.424;2022-12-18T05:52:33;70.13;;;27.93;;
17965;SDS011;9108;53.204;10.424;2022-12-18T05:55:01;68.80;;;27.65;;
17965;SDS011;9108;53.204;10.424;2022-12-18T05:57:28;68.75;;;27.95;;
17965;SDS011;9108;53.204;10.424;2022-12-18T05:59:55;67.78;;;27.10;;
17965;SDS011;9108;53.204;10.424;2022-12-18T06:02:22;69.82;;;27.73;;
17965;SDS011;9108;53.204;10.424;2022-12-18T06:04:51;66.53;;;27.08;;
17965;SDS011;9108;53.204;10.424;2022-12-18T06:07:18;66.07;;;26.45;;
17965;SDS011;9108;53.204;10.424;2022-12-18T06:09:45;65.93;;;27.50;;
17965;SDS011;9108;53.204;10.424;2022-12-18T06:12:12;69.53;;;27.35;;
17965;SDS011;9108;53.204;10.424;2022-12-18T06:14:39;70.63;;;27.47;;
17965;SDS011;9108;53.204;10.424;2022-12-18T06:17:06;70.72;;;27.02;;
17965;SDS011;9108;53.204;10.424;2022-12-18T06:19:34;67.65;;;27.48;;
17965;SDS011;9108;53.204;10.424;2022-12-18T06:22:04;69.00;;;26.80;;
17965;SDS011;9108;53.204;10.424;2022-12-18T06:24:31;68.18;;;27.35;;
17965;SDS011;9108;53.204;10.424;2022-12-18T06:26:58;70.32;;;28.45;;
17965;SDS011;9108;53.204;10.424;2022-12-18T06:29:25;74.28;;;28.65;;
17965;SDS011;9108;53.204;10.424;2022-12-18T06:31:52;69.90;;;27.38;;
17965;SDS011;9108;53.204;10.424;2022-12-18T06:34:19;71.72;;;28.02;;
17965;SDS011;9108;53.204;10.424;2022-12-18T06:36:46;72.55;;;28.23;;
17965;SDS011;9108;53.204;10.424;2022-12-18T06:39:15;70.72;;;28.15;;
17965;SDS011;9108;53.204;10.424;2022-12-18T06:41:42;71.67;;;27.70;;
17965;SDS011;9108;53.204;10.424;2022-12-18T06:44:09;68.95;;;28.05;;
17965;SDS011;9108;53.204;10.424;2022-12-18T06:46:38;70.85;;;29.23;;
17965;SDS011;9108;53.204;10.424;2022-12-18T06:49:05;70.22;;;28.52;;
17965;SDS011;9108;53.204;10.424;2022-12-18T06:51:34;76.22;;;29.20;;
17965;SDS011;9108;53.204;10.424;2022-12-18T06:54:01;77.00;;;29.65;;
17965;SDS011;9108;53.204;10.424;2022-12-18T06:56:33;82.68;;;30.80;;
17965;SDS011;9108;53.204;10.424;2022-12-18T06:59:00;89.80;;;35.00;;
17965;SDS011;9108;53.204;10.424;2022-12-18T07:01:27;83.93;;;32.38;;
17965;SDS011;9108;53.204;10.424;2022-12-18T07:03:55;82.38;;;33.08;;
17965;SDS011;9108;53.204;10.424;2022-12-18T07:06:23;73.28;;;29.63;;
17965;SDS011;9108;53.204;10.424;2022-12-18T07:08:50;73.68;;;28.60;;
17965;SDS011;9108;53.204;10.424;2022-12-18T07:11:18;74.88;;;28.60;;
17965;SDS011;9108;53.204;10.424;2022-12-18T07:13:47;72.55;;;28.90;;
17965;SDS011;9108;53.204;10.424;2022-12-18T07:16:14;76.38;;;30.63;;
17965;SDS011;9108;53.204;10.424;2022-12-18T07:18:42;73.38;;;29.17;;
17965;SDS011;9108;53.204;10.424;2022-12-18T07:21:10;73.10;;;29.47;;
17965;SDS011;9108;53.204;10.424;2022-12-18T07:23:37;69.82;;;28.92;;
17965;SDS011;9108;53.204;10.424;2022-12-18T07:26:05;73.47;;;29.30;;
17965;SDS011;9108;53.204;10.424;2022-12-18T07:28:34;71.90;;;27.92;;
17965;SDS011;9108;53.204;10.424;2022-12-18T07:31:03;72.90;;;28.67;;
17965;SDS011;9108;53.204;10.424;2022-12-18T07:33:31;74.13;;;29.27;;
17965;SDS011;9108;53.204;10.424;2022-12-18T07:35:58;74.60;;;30.13;;
17965;SDS011;9108;53.204;10.424;2022-12-18T07:38:26;71.13;;;29.45;;
17965;SDS011;9108;53.204;10.424;2022-12-18T07:40:54;66.53;;;28.38;;
17965;SDS011;9108;53.204;10.424;2022-12-18T07:43:21;72.25;;;28.60;;
17965;SDS011;9108;53.204;10.424;2022-12-18T07:45:48;71.22;;;28.50;;
17965;SDS011;9108;53.204;10.424;2022-12-18T07:48:17;72.55;;;28.80;;
17965;SDS011;9108;53.204;10.424;2022-12-18T07:50:44;76.00;;;30.42;;
17965;SDS011;9108;53.204;10.424;2022-12-18T07:53:12;74.57;;;29.40;;
17965;SDS011;9108;53.204;10.424;2022-12-18T07:55:39;98.05;;;36.00;;
17965;SDS011;9108;53.204;10.424;2022-12-18T07:58:07;79.72;;;31.58;;
17965;SDS011;9108;53.204;10.424;2022-12-18T08:00:34;73.15;;;28.48;;
17965;SDS011;9108;53.204;10.424;2022-12-18T08:03:01;67.50;;;27.75;;
17965;SDS011;9108;53.204;10.424;2022-12-18T08:05:30;68.57;;;27.70;;
17965;SDS011;9108;53.204;10.424;2022-12-18T08:07:57;63.25;;;26.75;;
17965;SDS011;9108;53.204;10.424;2022-12-18T08:10:25;61.95;;;26.00;;
17965;SDS011;9108;53.204;10.424;2022-12-18T08:12:52;59.97;;;25.77;;
17965;SDS011;9108;53.204;10.424;2022-12-18T08:15:19;65.57;;;27.02;;
17965;SDS011;9108;53.204;10.424;2022-12-18T08:17:47;59.35;;;25.38;;
17965;SDS011;9108;53.204;10.424;2022-12-18T08:20:14;58.13;;;24.43;;
17965;SDS011;9108;53.204;10.424;2022-12-18T08:22:44;70.53;;;27.70;;
17965;SDS011;9108;53.204;10.424;2022-12-18T08:25:12;68.43;;;28.08;;
17965;SDS011;9108;53.204;10.424;2022-12-18T08:27:39;69.53;;;27.60;;
17965;SDS011;9108;53.204;10.424;2022-12-18T08:30:06;53.20;;;23.42;;
17965;SDS011;9108;53.204;10.424;2022-12-18T08:32:37;52.00;;;22.33;;
17965;SDS011;9108;53.204;10.424;2022-12-18T08:35:04;50.63;;;21.75;;
17965;SDS011;9108;53.204;10.424;2022-12-18T08:37:32;48.42;;;21.50;;
17965;SDS011;9108;53.204;10.424;2022-12-18T08:40:01;47.78;;;21.08;;
17965;SDS011;9108;53.204;10.424;2022-12-18T08:42:28;47.42;;;20.80;;
17965;SDS011;9108;53.204;10.424;2022-12-18T08:45:13;46.92;;;20.45;;
17965;SDS011;9108;53.204;10.424;2022-12-18T08:47:41;51.90;;;21.20;;
17965;SDS011;9108;53.204;10.424;2022-12-18T08:50:11;49.00;;;21.47;;
17965;SDS011;9108;53.204;10.424;2022-12-18T08:52:39;46.90;;;20.47;;
17965;SDS011;9108;53.204;10.424;2022-12-18T08:55:08;48.22;;;20.48;;
17965;SDS011;9108;53.204;10.424;2022-12-18T08:57:36;46.65;;;20.15;;
17965;SDS011;9108;53.204;10.424;2022-12-18T09:00:03;47.50;;;20.90;;
17965;SDS011;9108;53.204;10.424;2022-12-18T09:02:31;46.75;;;21.52;;
17965;SDS011;9108;53.204;10.424;2022-12-18T09:04:58;45.08;;;19.80;;
17965;SDS011;9108;53.204;10.424;2022-12-18T09:07:25;44.33;;;19.63;;
17965;SDS011;9108;53.204;10.424;2022-12-18T09:09:52;47.83;;;19.95;;
17965;SDS011;9108;53.204;10.424;2022-12-18T09:12:21;44.08;;;19.88;;
17965;SDS011;9108;53.204;10.424;2022-12-18T09:14:48;43.35;;;19.08;;
17965;SDS011;9108;53.204;10.424;2022-12-18T09:17:15;45.97;;;20.30;;
17965;SDS011;9108;53.204;10.424;2022-12-18T09:19:45;42.08;;;18.75;;
17965;SDS011;9108;53.204;10.424;2022-12-18T09:22:14;41.85;;;19.15;;
17965;SDS011;9108;53.204;10.424;2022-12-18T09:24:41;39.70;;;18.67;;
17965;SDS011;9108;53.204;10.424;2022-12-18T09:27:08;43.47;;;19.00;;
17965;SDS011;9108;53.204;10.424;2022-12-18T09:29:37;38.93;;;18.00;;
17965;SDS011;9108;53.204;10.424;2022-12-18T09:32:04;43.70;;;18.77;;
17965;SDS011;9108;53.204;10.424;2022-12-18T09:34:32;46.13;;;19.85;;
17965;SDS011;9108;53.204;10.424;2022-12-18T09:36:59;42.95;;;18.90;;
17965;SDS011;9108;53.204;10.424;2022-12-18T09:39:26;45.78;;;19.48;;
17965;SDS011;9108;53.204;10.424;2022-12-18T09:41:54;45.73;;;19.87;;
17965;SDS011;9108;53.204;10.424;2022-12-18T09:44:23;43.45;;;19.67;;
17965;SDS011;9108;53.204;10.424;2022-12-18T09:46:55;44.50;;;19.42;;
17965;SDS011;9108;53.204;10.424;2022-12-18T09:49:25;47.15;;;19.90;;
17965;SDS011;9108;53.204;10.424;2022-12-18T09:51:54;44.67;;;19.70;;
17965;SDS011;9108;53.204;10.424;2022-12-18T09:54:24;43.17;;;19.45;;
17965;SDS011;9108;53.204;10.424;2022-12-18T09:56:52;43.45;;;18.98;;
17965;SDS011;9108;53.204;10.424;2022-12-18T09:59:21;45.97;;;19.58;;
17965;SDS011;9108;53.204;10.424;2022-12-18T10:01:50;41.78;;;19.20;;
17965;SDS011;9108;53.204;10.424;2022-12-18T10:04:19;44.90;;;19.73;;
17965;SDS011;9108;53.204;10.424;2022-12-18T10:06:48;42.35;;;19.17;;
17965;SDS011;9108;53.204;10.424;2022-12-18T10:09:20;44.35;;;19.83;;
17965;SDS011;9108;53.204;10.424;2022-12-18T10:11:53;40.10;;;18.23;;
17965;SDS011;9108;53.204;10.424;2022-12-18T10:14:23;43.85;;;19.58;;
17965;SDS011;9108;53.204;10.424;2022-12-18T10:16:56;43.42;;;18.50;;
17965;SDS011;9108;53.204;10.424;2022-12-18T10:19:32;43.90;;;19.00;;
17965;SDS011;9108;53.204;10.424;2022-12-18T10:22:02;42.08;;;18.60;;
17965;SDS011;9108;53.204;10.424;2022-12-18T10:24:36;43.55;;;19.30;;
17965;SDS011;9108;53.204;10.424;2022-12-18T10:27:09;43.15;;;19.48;;
17965;SDS011;9108;53.204;10.424;2022-12-18T10:29:39;41.75;;;18.70;;
17965;SDS011;9108;53.204;10.424;2022-12-18T10:32:07;46.90;;;19.40;;
17965;SDS011;9108;53.204;10.424;2022-12-18T10:34:37;45.50;;;19.85;;
17965;SDS011;9108;53.204;10.424;2022-12-18T10:37:06;42.47;;;18.98;;
17965;SDS011;9108;53.204;10.424;2022-12-18T10:39:33;41.10;;;18.60;;
17965;SDS011;9108;53.204;10.424;2022-12-18T10:42:09;42.88;;;18.83;;
17965;SDS011;9108;53.204;10.424;2022-12-18T10:44:36;41.35;;;17.88;;
17965;SDS011;9108;53.204;10.424;2022-12-18T10:47:04;43.88;;;18.42;;
17965;SDS011;9108;53.204;10.424;2022-12-18T10:49:32;42.10;;;18.55;;
17965;SDS011;9108;53.204;10.424;2022-12-18T10:52:05;44.15;;;18.88;;
17965;SDS011;9108;53.204;10.424;2022-12-18T10:54:34;45.60;;;19.38;;
17965;SDS011;9108;53.204;10.424;2022-12-18T10:57:13;45.67;;;19.35;;
17965;SDS011;9108;53.204;10.424;2022-12-18T10:59:50;49.90;;;21.58;;
17965;SDS011;9108;53.204;10.424;2022-12-18T11:02:24;45.83;;;19.03;;
17965;SDS011;9108;53.204;10.424;2022-12-18T11:04:52;46.33;;;19.60;;
17965;SDS011;9108;53.204;10.424;2022-12-18T11:07:20;49.13;;;20.65;;
17965;SDS011;9108;53.204;10.424;2022-12-18T11:09:58;44.30;;;19.23;;
17965;SDS011;9108;53.204;10.424;2022-12-18T11:12:26;49.05;;;20.58;;
17965;SDS011;9108;53.204;10.424;2022-12-18T11:14:54;46.75;;;19.38;;
17965;SDS011;9108;53.204;10.424;2022-12-18T11:17:24;45.20;;;19.65;;
17965;SDS011;9108;53.204;10.424;2022-12-18T11:19:52;47.38;;;19.63;;
17965;SDS011;9108;53.204;10.424;2022-12-18T11:22:23;48.08;;;19.60;;
17965;SDS011;9108;53.204;10.424;2022-12-18T11:24:52;46.85;;;20.42;;
17965;SDS011;9108;53.204;10.424;2022-12-18T11:27:20;47.92;;;20.20;;
17965;SDS011;9108;53.204;10.424;2022-12-18T11:29:47;47.20;;;19.67;;
17965;SDS011;9108;53.204;10.424;2022-12-18T11:32:27;50.45;;;19.52;;
17965;SDS011;9108;53.204;10.424;2022-12-18T11:34:58;49.35;;;20.02;;
17965;SDS011;9108;53.204;10.424;2022-12-18T11:37:27;49.90;;;20.57;;
17965;SDS011;9108;53.204;10.424;2022-12-18T11:39:56;47.42;;;19.33;;
17965;SDS011;9108;53.204;10.424;2022-12-18T11:42:27;48.78;;;19.65;;
17965;SDS011;9108;53.204;10.424;2022-12-18T11:44:57;46.25;;;19.27;;
17965;SDS011;9108;53.204;10.424;2022-12-18T11:47:27;44.40;;;19.27;;
17965;SDS011;9108;53.204;10.424;2022-12-18T11:49:56;47.28;;;19.63;;
17965;SDS011;9108;53.204;10.424;2022-12-18T11:52:27;49.65;;;20.17;;
17965;SDS011;9108;53.204;10.424;2022-12-18T11:54:59;47.20;;;19.80;;
17965;SDS011;9108;53.204;10.424;2022-12-18T11:57:30;49.40;;;19.30;;
17965;SDS011;9108;53.204;10.424;2022-12-18T12:00:02;48.88;;;19.08;;
17965;SDS011;9108;53.204;10.424;2022-12-18T12:02:35;49.65;;;19.52;;
17965;SDS011;9108;53.204;10.424;2022-12-18T12:05:18;48.33;;;19.20;;
17965;SDS011;9108;53.204;10.424;2022-12-18T12:07:50;47.28;;;18.85;;
17965;SDS011;9108;53.204;10.424;2022-12-18T12:10:24;51.38;;;18.98;;
17965;SDS011;9108;53.204;10.424;2022-12-18T12:12:56;46.60;;;18.83;;
17965;SDS011;9108;53.204;10.424;2022-12-18T12:15:29;47.40;;;19.58;;
17965;SDS011;9108;53.204;10.424;2022-12-18T12:18:01;46.40;;;19.17;;
17965;SDS011;9108;53.204;10.424;2022-12-18T12:20:35;51.33;;;19.80;;
17965;SDS011;9108;53.204;10.424;2022-12-18T12:23:11;52.28;;;20.27;;
17965;SDS011;9108;53.204;10.424;2022-12-18T12:25:43;50.77;;;19.97;;
17965;SDS011;9108;53.204;10.424;2022-12-18T12:28:15;51.40;;;19.95;;
17965;SDS011;9108;53.204;10.424;2022-12-18T12:30:49;52.28;;;20.50;;
17965;SDS011;9108;53.204;10.424;2022-12-18T12:33:22;58.22;;;21.27;;
17965;SDS011;9108;53.204;10.424;2022-12-18T12:35:52;51.58;;;19.70;;
17965;SDS011;9108;53.204;10.424;2022-12-18T12:38:21;55.38;;;21.10;;
17965;SDS011;9108;53.204;10.424;2022-12-18T12:40:51;55.33;;;21.05;;
17965;SDS011;9108;53.204;10.424;2022-12-18T12:43:21;53.53;;;20.55;;
17965;SDS011;9108;53.204;10.424;2022-12-18T12:45:49;53.58;;;20.80;;
17965;SDS011;9108;53.204;10.424;2022-12-18T12:48:20;53.17;;;21.30;;
17965;SDS011;9108;53.204;10.424;2022-12-18T12:50:50;57.40;;;20.95;;
17965;SDS011;9108;53.204;10.424;2022-12-18T12:53:22;59.45;;;22.73;;
17965;SDS011;9108;53.204;10.424;2022-12-18T12:55:50;59.83;;;22.35;;
17965;SDS011;9108;53.204;10.424;2022-12-18T12:58:19;63.60;;;22.90;;
17965;SDS011;9108;53.204;10.424;2022-12-18T13:00:51;62.58;;;23.35;;
17965;SDS011;9108;53.204;10.424;2022-12-18T13:03:23;60.45;;;22.85;;
17965;SDS011;9108;53.204;10.424;2022-12-18T13:05:53;61.80;;;23.08;;
17965;SDS011;9108;53.204;10.424;2022-12-18T13:08:23;61.97;;;23.35;;
17965;SDS011;9108;53.204;10.424;2022-12-18T13:10:51;62.97;;;23.35;;
17965;SDS011;9108;53.204;10.424;2022-12-18T13:13:47;66.68;;;25.02;;
17965;SDS011;9108;53.204;10.424;2022-12-18T13:16:14;79.75;;;35.30;;
17965;SDS011;9108;53.204;10.424;2022-12-18T13:18:48;63.90;;;24.47;;
17965;SDS011;9108;53.204;10.424;2022-12-18T13:21:17;66.45;;;24.75;;
17965;SDS011;9108;53.204;10.424;2022-12-18T13:23:48;67.85;;;25.05;;
17965;SDS011;9108;53.204;10.424;2022-12-18T13:29:00;69.70;;;24.65;;
17965;SDS011;9108;53.204;10.424;2022-12-18T13:34:15;68.65;;;25.17;;
17965;SDS011;9108;53.204;10.424;2022-12-18T13:36:43;66.55;;;24.45;;
17965;SDS011;9108;53.204;10.424;2022-12-18T13:39:24;69.53;;;25.40;;
17965;SDS011;9108;53.204;10.424;2022-12-18T13:41:52;69.38;;;24.38;;
17965;SDS011;9108;53.204;10.424;2022-12-18T13:44:31;68.67;;;24.23;;
17965;SDS011;9108;53.204;10.424;2022-12-18T13:46:59;67.15;;;24.30;;
17965;SDS011;9108;53.204;10.424;2022-12-18T13:49:28;67.85;;;24.55;;
17965;SDS011;9108;53.204;10.424;2022-12-18T13:51:57;65.60;;;24.77;;
17965;SDS011;9108;53.204;10.424;2022-12-18T13:54:28;71.63;;;25.27;;
17965;SDS011;9108;53.204;10.424;2022-12-18T13:56:57;72.53;;;24.58;;
17965;SDS011;9108;53.204;10.424;2022-12-18T13:59:24;68.55;;;24.73;;
17965;SDS011;9108;53.204;10.424;2022-12-18T14:01:53;71.35;;;25.63;;
17965;SDS011;9108;53.204;10.424;2022-12-18T14:04:22;72.95;;;24.75;;
17965;SDS011;9108;53.204;10.424;2022-12-18T14:06:50;72.13;;;25.07;;
17965;SDS011;9108;53.204;10.424;2022-12-18T14:09:19;73.03;;;24.80;;
17965;SDS011;9108;53.204;10.424;2022-12-18T14:11:49;70.82;;;25.45;;
17965;SDS011;9108;53.204;10.424;2022-12-18T14:14:17;73.25;;;25.10;;
17965;SDS011;9108;53.204;10.424;2022-12-18T14:16:45;74.07;;;25.45;;
17965;SDS011;9108;53.204;10.424;2022-12-18T14:19:14;73.40;;;25.55;;
17965;SDS011;9108;53.204;10.424;2022-12-18T14:21:45;76.28;;;26.77;;
17965;SDS011;9108;53.204;10.424;2022-12-18T14:24:13;75.72;;;26.25;;
17965;SDS011;9108;53.204;10.424;2022-12-18T14:26:41;76.55;;;26.20;;
17965;SDS011;9108;53.204;10.424;2022-12-18T14:29:19;73.05;;;24.95;;
17965;SDS011;9108;53.204;10.424;2022-12-18T14:32:03;72.55;;;25.35;;
17965;SDS011;9108;53.204;10.424;2022-12-18T14:34:30;70.53;;;25.52;;
17965;SDS011;9108;53.204;10.424;2022-12-18T14:36:57;73.03;;;24.90;;
17965;SDS011;9108;53.204;10.424;2022-12-18T14:39:24;73.07;;;25.02;;
17965;SDS011;9108;53.204;10.424;2022-12-18T14:41:52;69.60;;;24.98;;